sensor_id;sensor_type;location;lat;lon;timestamp;temperature;humidity
16128;DHT22;8168;49.036;7.690;2023-06-24T00:00:20;16.30;99.90
16128;DHT22;8168;49.036;7.690;2023-06-24T00:02:50;16.20;99.90
16128;DHT22;8168;49.036;7.690;2023-06-24T00:05:24;16.20;99.90
16128;DHT22;8168;49.036;7.690;2023-06-24T00:07:54;16.10;99.90
16128;DHT22;8168;49.036;7.690;2023-06-24T00:10:27;16.10;99.90
16128;DHT22;8168;49.036;7.690;2023-06-24T00:12:59;16.10;99.90
16128;DHT22;8168;49.036;7.690;2023-06-24T00:15:31;16.00;99.90
16128;DHT22;8168;49.036;7.690;2023-06-24T00:18:02;16.00;99.90
16128;DHT22;8168;49.036;7.690;2023-06-24T00:20:36;16.00;99.90
16128;DHT22;8168;49.036;7.690;2023-06-24T00:23:06;15.90;99.90
16128;DHT22;8168;49.036;7.690;2023-06-24T00:25:37;15.90;99.90
16128;DHT22;8168;49.036;7.690;2023-06-24T00:28:08;15.80;99.90
16128;DHT22;8168;49.036;7.690;2023-06-24T00:30:38;15.80;99.90
16128;DHT22;8168;49.036;7.690;2023-06-24T00:33:09;15.70;99.90
16128;DHT22;8168;49.036;7.690;2023-06-24T00:35:41;15.70;99.90
16128;DHT22;8168;49.036;7.690;2023-06-24T00:38:13;15.60;99.90
16128;DHT22;8168;49.036;7.690;2023-06-24T00:40:43;15.60;99.90
16128;DHT22;8168;49.036;7.690;2023-06-24T00:43:16;15.60;99.90
16128;DHT22;8168;49.036;7.690;2023-06-24T00:45:47;15.60;99.90
16128;DHT22;8168;49.036;7.690;2023-06-24T00:48:19;15.50;99.90
16128;DHT22;8168;49.036;7.690;2023-06-24T00:50:51;15.50;99.90
16128;DHT22;8168;49.036;7.690;2023-06-24T00:53:22;15.40;99.90
16128;DHT22;8168;49.036;7.690;2023-06-24T00:55:56;15.40;99.90
16128;DHT22;8168;49.036;7.690;2023-06-24T00:58:33;15.40;99.90
16128;DHT22;8168;49.036;7.690;2023-06-24T01:01:07;15.40;99.90
16128;DHT22;8168;49.036;7.690;2023-06-24T01:03:39;15.40;99.90
16128;DHT22;8168;49.036;7.690;2023-06-24T01:06:10;15.30;99.90
16128;DHT22;8168;49.036;7.690;2023-06-24T01:08:42;15.30;99.90
16128;DHT22;8168;49.036;7.690;2023-06-24T01:11:12;15.20;99.90
16128;DHT22;8168;49.036;7.690;2023-06-24T01:13:43;15.20;99.90
16128;DHT22;8168;49.036;7.690;2023-06-24T01:16:26;15.20;99.90
16128;DHT22;8168;49.036;7.690;2023-06-24T01:34:00;15.00;99.90
16128;DHT22;8168;49.036;7.690;2023-06-24T01:36:33;14.90;99.90
16128;DHT22;8168;49.036;7.690;2023-06-24T01:39:08;14.90;99.90
16128;DHT22;8168;49.036;7.690;2023-06-24T01:41:46;14.90;99.90
16128;DHT22;8168;49.036;7.690;2023-06-24T01:44:18;14.80;99.90
16128;DHT22;8168;49.036;7.690;2023-06-24T01:46:51;14.80;99.90
16128;DHT22;8168;49.036;7.690;2023-06-24T01:49:27;14.80;99.90
16128;DHT22;8168;49.036;7.690;2023-06-24T01:51:58;14.70;99.90
16128;DHT22;8168;49.036;7.690;2023-06-24T01:54:31;14.70;99.90
16128;DHT22;8168;49.036;7.690;2023-06-24T01:57:04;14.70;99.90
16128;DHT22;8168;49.036;7.690;2023-06-24T01:59:39;14.60;99.90
16128;DHT22;8168;49.036;7.690;2023-06-24T02:02:12;14.60;99.90
16128;DHT22;8168;49.036;7.690;2023-06-24T02:04:43;14.60;99.90
16128;DHT22;8168;49.036;7.690;2023-06-24T02:07:15;14.60;99.90
16128;DHT22;8168;49.036;7.690;2023-06-24T02:09:46;14.50;99.90
16128;DHT22;8168;49.036;7.690;2023-06-24T02:12:18;14.50;99.90
16128;DHT22;8168;49.036;7.690;2023-06-24T02:14:51;14.50;99.90
16128;DHT22;8168;49.036;7.690;2023-06-24T02:17:24;14.50;99.90
16128;DHT22;8168;49.036;7.690;2023-06-24T02:19:56;14.50;99.90
16128;DHT22;8168;49.036;7.690;2023-06-24T02:22:28;14.40;99.90
16128;DHT22;8168;49.036;7.690;2023-06-24T02:24:59;14.40;99.90
16128;DHT22;8168;49.036;7.690;2023-06-24T02:27:30;14.40;99.90
16128;DHT22;8168;49.036;7.690;2023-06-24T02:30:02;14.30;99.90
16128;DHT22;8168;49.036;7.690;2023-06-24T02:32:33;14.30;99.90
16128;DHT22;8168;49.036;7.690;2023-06-24T02:35:06;14.20;99.90
16128;DHT22;8168;49.036;7.690;2023-06-24T02:37:38;14.30;99.90
16128;DHT22;8168;49.036;7.690;2023-06-24T02:40:09;14.20;99.90
16128;DHT22;8168;49.036;7.690;2023-06-24T02:42:40;14.20;99.90
16128;DHT22;8168;49.036;7.690;2023-06-24T02:45:11;14.20;99.90
16128;DHT22;8168;49.036;7.690;2023-06-24T02:47:44;14.20;99.90
16128;DHT22;8168;49.036;7.690;2023-06-24T02:50:16;14.10;99.90
16128;DHT22;8168;49.036;7.690;2023-06-24T02:52:48;14.10;99.90
16128;DHT22;8168;49.036;7.690;2023-06-24T02:55:19;14.10;99.90
16128;DHT22;8168;49.036;7.690;2023-06-24T02:57:50;14.00;99.90
16128;DHT22;8168;49.036;7.690;2023-06-24T03:00:21;13.90;99.90
16128;DHT22;8168;49.036;7.690;2023-06-24T03:02:52;13.90;99.90
16128;DHT22;8168;49.036;7.690;2023-06-24T03:05:26;13.90;99.90
16128;DHT22;8168;49.036;7.690;2023-06-24T03:07:57;13.90;99.90
16128;DHT22;8168;49.036;7.690;2023-06-24T03:10:28;13.80;99.90
16128;DHT22;8168;49.036;7.690;2023-06-24T03:12:59;13.80;99.90
16128;DHT22;8168;49.036;7.690;2023-06-24T03:15:29;13.80;99.90
16128;DHT22;8168;49.036;7.690;2023-06-24T03:18:00;13.80;99.90
16128;DHT22;8168;49.036;7.690;2023-06-24T03:20:31;13.80;99.90
16128;DHT22;8168;49.036;7.690;2023-06-24T03:23:09;13.80;99.90
16128;DHT22;8168;49.036;7.690;2023-06-24T03:25:39;13.80;99.90
16128;DHT22;8168;49.036;7.690;2023-06-24T03:28:10;13.80;99.90
16128;DHT22;8168;49.036;7.690;2023-06-24T03:30:40;13.70;99.90
16128;DHT22;8168;49.036;7.690;2023-06-24T03:33:11;13.70;99.90
16128;DHT22;8168;49.036;7.690;2023-06-24T03:35:47;13.70;99.90
16128;DHT22;8168;49.036;7.690;2023-06-24T03:38:18;13.70;99.90
16128;DHT22;8168;49.036;7.690;2023-06-24T03:40:48;13.70;99.90
16128;DHT22;8168;49.036;7.690;2023-06-24T03:43:19;13.60;99.90
16128;DHT22;8168;49.036;7.690;2023-06-24T03:45:49;13.60;99.90
16128;DHT22;8168;49.036;7.690;2023-06-24T03:48:20;13.60;99.90
16128;DHT22;8168;49.036;7.690;2023-06-24T03:50:51;13.60;99.90
16128;DHT22;8168;49.036;7.690;2023-06-24T03:53:21;13.60;99.90
16128;DHT22;8168;49.036;7.690;2023-06-24T03:55:52;13.60;99.90
16128;DHT22;8168;49.036;7.690;2023-06-24T03:58:22;13.60;99.90
16128;DHT22;8168;49.036;7.690;2023-06-24T04:00:53;14.80;99.90
16128;DHT22;8168;49.036;7.690;2023-06-24T04:03:26;13.50;99.90
16128;DHT22;8168;49.036;7.690;2023-06-24T04:05:57;13.60;99.90
16128;DHT22;8168;49.036;7.690;2023-06-24T04:08:28;13.60;99.90
16128;DHT22;8168;49.036;7.690;2023-06-24T04:11:02;13.60;99.90
16128;DHT22;8168;49.036;7.690;2023-06-24T04:13:36;13.50;99.90
16128;DHT22;8168;49.036;7.690;2023-06-24T04:16:07;13.50;99.90
16128;DHT22;8168;49.036;7.690;2023-06-24T04:18:38;13.50;99.90
16128;DHT22;8168;49.036;7.690;2023-06-24T04:21:10;13.50;99.90
16128;DHT22;8168;49.036;7.690;2023-06-24T04:23:40;13.50;99.90
16128;DHT22;8168;49.036;7.690;2023-06-24T04:26:11;13.60;99.90
16128;DHT22;8168;49.036;7.690;2023-06-24T04:28:41;13.60;99.90
16128;DHT22;8168;49.036;7.690;2023-06-24T04:31:12;13.60;99.90
16128;DHT22;8168;49.036;7.690;2023-06-24T04:33:43;13.50;99.90
16128;DHT22;8168;49.036;7.690;2023-06-24T04:36:13;13.60;99.90
16128;DHT22;8168;49.036;7.690;2023-06-24T04:38:44;13.60;99.90
16128;DHT22;8168;49.036;7.690;2023-06-24T04:41:15;13.60;99.90
16128;DHT22;8168;49.036;7.690;2023-06-24T04:43:45;13.70;99.90
16128;DHT22;8168;49.036;7.690;2023-06-24T04:46:16;13.70;99.90
16128;DHT22;8168;49.036;7.690;2023-06-24T04:48:46;13.70;99.90
16128;DHT22;8168;49.036;7.690;2023-06-24T04:51:17;13.70;99.90
16128;DHT22;8168;49.036;7.690;2023-06-24T04:53:47;13.70;99.90
16128;DHT22;8168;49.036;7.690;2023-06-24T04:56:18;13.70;99.90
16128;DHT22;8168;49.036;7.690;2023-06-24T04:58:49;13.70;99.90
16128;DHT22;8168;49.036;7.690;2023-06-24T05:01:20;13.80;99.90
16128;DHT22;8168;49.036;7.690;2023-06-24T05:03:50;13.80;99.90
16128;DHT22;8168;49.036;7.690;2023-06-24T05:06:21;13.90;99.90
16128;DHT22;8168;49.036;7.690;2023-06-24T05:08:51;14.00;99.90
16128;DHT22;8168;49.036;7.690;2023-06-24T05:11:22;14.10;99.90
16128;DHT22;8168;49.036;7.690;2023-06-24T05:13:53;14.20;99.90
16128;DHT22;8168;49.036;7.690;2023-06-24T05:16:23;14.30;99.90
16128;DHT22;8168;49.036;7.690;2023-06-24T05:18:54;14.40;99.90
16128;DHT22;8168;49.036;7.690;2023-06-24T05:21:25;14.50;99.90
16128;DHT22;8168;49.036;7.690;2023-06-24T05:23:55;14.60;99.90
16128;DHT22;8168;49.036;7.690;2023-06-24T05:26:26;12.10;99.90
16128;DHT22;8168;49.036;7.690;2023-06-24T05:28:57;14.80;99.90
16128;DHT22;8168;49.036;7.690;2023-06-24T05:31:27;14.90;99.90
16128;DHT22;8168;49.036;7.690;2023-06-24T05:33:58;15.00;99.90
16128;DHT22;8168;49.036;7.690;2023-06-24T05:36:28;15.10;99.90
16128;DHT22;8168;49.036;7.690;2023-06-24T05:38:59;15.30;99.90
16128;DHT22;8168;49.036;7.690;2023-06-24T05:41:30;15.40;99.90
16128;DHT22;8168;49.036;7.690;2023-06-24T05:44:05;15.50;99.90
16128;DHT22;8168;49.036;7.690;2023-06-24T05:46:37;15.60;99.90
16128;DHT22;8168;49.036;7.690;2023-06-24T05:49:07;15.70;99.90
16128;DHT22;8168;49.036;7.690;2023-06-24T05:51:38;15.90;99.90
16128;DHT22;8168;49.036;7.690;2023-06-24T05:54:08;16.00;99.90
16128;DHT22;8168;49.036;7.690;2023-06-24T05:56:39;16.10;99.90
16128;DHT22;8168;49.036;7.690;2023-06-24T05:59:10;16.20;99.90
16128;DHT22;8168;49.036;7.690;2023-06-24T06:01:40;16.30;99.90
16128;DHT22;8168;49.036;7.690;2023-06-24T06:04:11;16.40;99.90
16128;DHT22;8168;49.036;7.690;2023-06-24T06:06:41;16.60;99.90
16128;DHT22;8168;49.036;7.690;2023-06-24T06:09:12;16.70;99.90
16128;DHT22;8168;49.036;7.690;2023-06-24T06:11:43;16.80;99.90
16128;DHT22;8168;49.036;7.690;2023-06-24T06:14:13;16.90;99.90
16128;DHT22;8168;49.036;7.690;2023-06-24T06:16:44;17.00;99.90
16128;DHT22;8168;49.036;7.690;2023-06-24T06:19:15;17.20;99.90
16128;DHT22;8168;49.036;7.690;2023-06-24T06:21:45;17.30;99.90
16128;DHT22;8168;49.036;7.690;2023-06-24T06:24:16;17.40;99.90
16128;DHT22;8168;49.036;7.690;2023-06-24T06:26:46;17.50;99.90
16128;DHT22;8168;49.036;7.690;2023-06-24T06:29:17;17.60;99.90
16128;DHT22;8168;49.036;7.690;2023-06-24T06:31:48;17.70;99.90
16128;DHT22;8168;49.036;7.690;2023-06-24T06:34:19;17.70;99.90
16128;DHT22;8168;49.036;7.690;2023-06-24T06:36:50;17.80;99.90
16128;DHT22;8168;49.036;7.690;2023-06-24T06:39:21;17.90;99.90
16128;DHT22;8168;49.036;7.690;2023-06-24T06:41:51;17.90;99.90
16128;DHT22;8168;49.036;7.690;2023-06-24T06:44:22;18.10;99.90
16128;DHT22;8168;49.036;7.690;2023-06-24T06:46:52;18.20;99.90
16128;DHT22;8168;49.036;7.690;2023-06-24T06:49:23;18.40;99.90
16128;DHT22;8168;49.036;7.690;2023-06-24T06:51:54;18.50;99.90
16128;DHT22;8168;49.036;7.690;2023-06-24T06:54:25;18.60;99.90
16128;DHT22;8168;49.036;7.690;2023-06-24T06:57:00;18.70;99.90
16128;DHT22;8168;49.036;7.690;2023-06-24T06:59:31;18.90;99.90
16128;DHT22;8168;49.036;7.690;2023-06-24T07:02:02;19.00;99.90
16128;DHT22;8168;49.036;7.690;2023-06-24T07:04:33;19.10;99.90
16128;DHT22;8168;49.036;7.690;2023-06-24T07:07:04;19.20;99.90
16128;DHT22;8168;49.036;7.690;2023-06-24T07:09:34;19.40;99.90
16128;DHT22;8168;49.036;7.690;2023-06-24T07:12:06;19.50;99.90
16128;DHT22;8168;49.036;7.690;2023-06-24T07:14:37;19.50;99.90
16128;DHT22;8168;49.036;7.690;2023-06-24T07:17:08;19.70;99.90
16128;DHT22;8168;49.036;7.690;2023-06-24T07:19:38;19.80;99.90
16128;DHT22;8168;49.036;7.690;2023-06-24T07:22:09;20.00;99.90
16128;DHT22;8168;49.036;7.690;2023-06-24T07:24:39;20.10;99.90
16128;DHT22;8168;49.036;7.690;2023-06-24T07:27:10;20.30;99.90
16128;DHT22;8168;49.036;7.690;2023-06-24T07:29:40;20.40;99.90
16128;DHT22;8168;49.036;7.690;2023-06-24T07:32:12;20.50;99.90
16128;DHT22;8168;49.036;7.690;2023-06-24T07:34:42;20.60;99.90
16128;DHT22;8168;49.036;7.690;2023-06-24T07:37:13;20.80;99.90
16128;DHT22;8168;49.036;7.690;2023-06-24T07:39:43;20.80;99.90
16128;DHT22;8168;49.036;7.690;2023-06-24T07:42:14;21.00;99.90
16128;DHT22;8168;49.036;7.690;2023-06-24T07:44:49;21.10;99.90
16128;DHT22;8168;49.036;7.690;2023-06-24T07:47:20;21.30;99.90
16128;DHT22;8168;49.036;7.690;2023-06-24T07:49:51;21.40;99.90
16128;DHT22;8168;49.036;7.690;2023-06-24T07:52:22;21.60;99.90
16128;DHT22;8168;49.036;7.690;2023-06-24T07:54:53;21.70;99.90
16128;DHT22;8168;49.036;7.690;2023-06-24T07:57:23;21.80;99.90
16128;DHT22;8168;49.036;7.690;2023-06-24T07:59:54;22.00;99.90
16128;DHT22;8168;49.036;7.690;2023-06-24T08:02:25;22.10;99.90
16128;DHT22;8168;49.036;7.690;2023-06-24T08:04:56;22.30;99.90
16128;DHT22;8168;49.036;7.690;2023-06-24T08:07:27;22.40;99.90
16128;DHT22;8168;49.036;7.690;2023-06-24T08:09:57;22.50;99.90
16128;DHT22;8168;49.036;7.690;2023-06-24T08:12:28;22.70;99.90
16128;DHT22;8168;49.036;7.690;2023-06-24T08:14:58;22.80;99.90
16128;DHT22;8168;49.036;7.690;2023-06-24T08:17:29;22.80;99.90
16128;DHT22;8168;49.036;7.690;2023-06-24T08:20:04;23.00;99.90
16128;DHT22;8168;49.036;7.690;2023-06-24T08:22:34;23.00;99.90
16128;DHT22;8168;49.036;7.690;2023-06-24T08:25:05;23.10;99.20
16128;DHT22;8168;49.036;7.690;2023-06-24T08:27:36;23.20;99.20
16128;DHT22;8168;49.036;7.690;2023-06-24T08:30:08;23.40;98.90
16128;DHT22;8168;49.036;7.690;2023-06-24T08:32:38;23.40;98.40
16128;DHT22;8168;49.036;7.690;2023-06-24T08:35:10;23.50;97.70
16128;DHT22;8168;49.036;7.690;2023-06-24T08:37:41;23.60;98.30
16128;DHT22;8168;49.036;7.690;2023-06-24T08:40:12;23.60;97.70
16128;DHT22;8168;49.036;7.690;2023-06-24T08:42:43;23.80;97.70
16128;DHT22;8168;49.036;7.690;2023-06-24T08:45:14;23.80;97.70
16128;DHT22;8168;49.036;7.690;2023-06-24T08:47:47;23.90;97.70
16128;DHT22;8168;49.036;7.690;2023-06-24T08:50:18;24.00;97.00
16128;DHT22;8168;49.036;7.690;2023-06-24T08:52:51;24.10;97.00
16128;DHT22;8168;49.036;7.690;2023-06-24T08:55:23;24.10;96.30
16128;DHT22;8168;49.036;7.690;2023-06-24T08:57:58;24.10;95.30
16128;DHT22;8168;49.036;7.690;2023-06-24T09:00:29;24.20;95.40
16128;DHT22;8168;49.036;7.690;2023-06-24T09:02:59;24.30;94.40
16128;DHT22;8168;49.036;7.690;2023-06-24T09:05:30;24.40;94.60
16128;DHT22;8168;49.036;7.690;2023-06-24T09:08:01;24.50;94.80
16128;DHT22;8168;49.036;7.690;2023-06-24T09:10:33;24.50;94.50
16128;DHT22;8168;49.036;7.690;2023-06-24T09:13:05;24.60;94.10
16128;DHT22;8168;49.036;7.690;2023-06-24T09:15:37;24.50;93.60
16128;DHT22;8168;49.036;7.690;2023-06-24T09:18:08;24.50;93.80
16128;DHT22;8168;49.036;7.690;2023-06-24T09:20:42;24.60;93.50
16128;DHT22;8168;49.036;7.690;2023-06-24T09:23:16;24.70;93.30
16128;DHT22;8168;49.036;7.690;2023-06-24T09:25:56;24.70;94.50
16128;DHT22;8168;49.036;7.690;2023-06-24T09:28:27;24.80;93.40
16128;DHT22;8168;49.036;7.690;2023-06-24T09:31:08;24.90;93.20
16128;DHT22;8168;49.036;7.690;2023-06-24T09:33:39;24.30;91.80
16128;DHT22;8168;49.036;7.690;2023-06-24T09:36:14;25.00;92.70
16128;DHT22;8168;49.036;7.690;2023-06-24T09:38:45;25.10;91.80
16128;DHT22;8168;49.036;7.690;2023-06-24T09:41:16;25.20;91.60
16128;DHT22;8168;49.036;7.690;2023-06-24T09:43:47;25.30;91.10
16128;DHT22;8168;49.036;7.690;2023-06-24T09:46:18;25.20;91.50
16128;DHT22;8168;49.036;7.690;2023-06-24T09:48:48;25.30;91.40
16128;DHT22;8168;49.036;7.690;2023-06-24T09:51:19;25.30;90.90
16128;DHT22;8168;49.036;7.690;2023-06-24T09:53:52;25.30;92.00
16128;DHT22;8168;49.036;7.690;2023-06-24T09:56:25;25.40;92.10
16128;DHT22;8168;49.036;7.690;2023-06-24T09:58:56;25.50;91.20
16128;DHT22;8168;49.036;7.690;2023-06-24T10:01:27;25.60;91.40
16128;DHT22;8168;49.036;7.690;2023-06-24T10:03:58;25.60;90.30
16128;DHT22;8168;49.036;7.690;2023-06-24T10:06:29;25.70;90.40
16128;DHT22;8168;49.036;7.690;2023-06-24T10:09:01;25.80;90.00
16128;DHT22;8168;49.036;7.690;2023-06-24T10:11:31;25.90;89.60
16128;DHT22;8168;49.036;7.690;2023-06-24T10:14:03;25.90;89.20
16128;DHT22;8168;49.036;7.690;2023-06-24T10:16:33;26.00;89.00
16128;DHT22;8168;49.036;7.690;2023-06-24T10:19:05;26.10;87.80
16128;DHT22;8168;49.036;7.690;2023-06-24T10:21:51;26.20;87.20
16128;DHT22;8168;49.036;7.690;2023-06-24T10:24:33;26.20;87.00
16128;DHT22;8168;49.036;7.690;2023-06-24T10:27:15;26.40;87.70
16128;DHT22;8168;49.036;7.690;2023-06-24T10:29:53;26.50;86.90
16128;DHT22;8168;49.036;7.690;2023-06-24T10:32:26;26.60;86.60
16128;DHT22;8168;49.036;7.690;2023-06-24T10:34:57;26.60;84.80
16128;DHT22;8168;49.036;7.690;2023-06-24T10:37:32;26.70;85.30
16128;DHT22;8168;49.036;7.690;2023-06-24T10:40:03;26.70;85.20
16128;DHT22;8168;49.036;7.690;2023-06-24T10:42:39;26.80;85.30
16128;DHT22;8168;49.036;7.690;2023-06-24T10:47:48;27.00;84.80
16128;DHT22;8168;49.036;7.690;2023-06-24T10:50:20;27.10;85.10
16128;DHT22;8168;49.036;7.690;2023-06-24T10:52:52;27.10;85.80
16128;DHT22;8168;49.036;7.690;2023-06-24T10:55:26;27.20;83.10
16128;DHT22;8168;49.036;7.690;2023-06-24T10:58:07;27.30;82.40
16128;DHT22;8168;49.036;7.690;2023-06-24T11:00:39;27.40;80.50
16128;DHT22;8168;49.036;7.690;2023-06-24T11:03:16;27.50;79.30
16128;DHT22;8168;49.036;7.690;2023-06-24T11:05:48;27.50;80.20
16128;DHT22;8168;49.036;7.690;2023-06-24T11:08:20;27.60;79.80
16128;DHT22;8168;49.036;7.690;2023-06-24T11:10:51;27.60;78.60
16128;DHT22;8168;49.036;7.690;2023-06-24T11:13:21;27.50;78.20
16128;DHT22;8168;49.036;7.690;2023-06-24T11:15:52;27.40;77.70
16128;DHT22;8168;49.036;7.690;2023-06-24T11:18:23;27.40;79.10
16128;DHT22;8168;49.036;7.690;2023-06-24T11:20:54;27.70;80.00
16128;DHT22;8168;49.036;7.690;2023-06-24T11:23:25;27.60;78.90
16128;DHT22;8168;49.036;7.690;2023-06-24T11:25:56;27.70;77.30
16128;DHT22;8168;49.036;7.690;2023-06-24T11:28:31;27.70;75.50
16128;DHT22;8168;49.036;7.690;2023-06-24T11:31:08;27.50;76.40
16128;DHT22;8168;49.036;7.690;2023-06-24T11:33:40;27.50;75.40
16128;DHT22;8168;49.036;7.690;2023-06-24T11:36:11;27.20;72.60
16128;DHT22;8168;49.036;7.690;2023-06-24T11:38:41;26.90;73.60
16128;DHT22;8168;49.036;7.690;2023-06-24T11:41:12;26.80;74.80
16128;DHT22;8168;49.036;7.690;2023-06-24T11:43:44;26.70;72.20
16128;DHT22;8168;49.036;7.690;2023-06-24T11:46:28;26.60;74.30
16128;DHT22;8168;49.036;7.690;2023-06-24T11:49:08;26.80;77.70
16128;DHT22;8168;49.036;7.690;2023-06-24T11:51:46;27.00;75.90
16128;DHT22;8168;49.036;7.690;2023-06-24T11:54:20;27.10;77.70
16128;DHT22;8168;49.036;7.690;2023-06-24T11:56:52;27.20;75.40
16128;DHT22;8168;49.036;7.690;2023-06-24T11:59:23;27.30;73.70
16128;DHT22;8168;49.036;7.690;2023-06-24T12:01:57;27.50;72.80
16128;DHT22;8168;49.036;7.690;2023-06-24T12:04:29;27.60;73.90
16128;DHT22;8168;49.036;7.690;2023-06-24T12:07:00;27.70;72.80
16128;DHT22;8168;49.036;7.690;2023-06-24T12:09:31;27.90;72.40
16128;DHT22;8168;49.036;7.690;2023-06-24T12:12:01;28.00;72.80
16128;DHT22;8168;49.036;7.690;2023-06-24T12:14:32;28.10;71.10
16128;DHT22;8168;49.036;7.690;2023-06-24T12:17:03;28.20;69.50
16128;DHT22;8168;49.036;7.690;2023-06-24T12:19:33;28.20;70.00
16128;DHT22;8168;49.036;7.690;2023-06-24T12:22:04;28.30;72.40
16128;DHT22;8168;49.036;7.690;2023-06-24T12:24:34;28.40;70.00
16128;DHT22;8168;49.036;7.690;2023-06-24T12:27:05;28.50;68.90
16128;DHT22;8168;49.036;7.690;2023-06-24T12:29:36;28.50;68.00
16128;DHT22;8168;49.036;7.690;2023-06-24T12:32:07;28.50;67.70
16128;DHT22;8168;49.036;7.690;2023-06-24T12:34:38;28.50;69.40
16128;DHT22;8168;49.036;7.690;2023-06-24T12:37:08;28.50;69.90
16128;DHT22;8168;49.036;7.690;2023-06-24T12:39:39;28.40;67.20
16128;DHT22;8168;49.036;7.690;2023-06-24T12:42:09;28.00;67.10
16128;DHT22;8168;49.036;7.690;2023-06-24T12:44:40;28.00;69.00
16128;DHT22;8168;49.036;7.690;2023-06-24T12:47:11;28.00;67.00
16128;DHT22;8168;49.036;7.690;2023-06-24T12:49:41;28.10;66.50
16128;DHT22;8168;49.036;7.690;2023-06-24T12:52:13;28.20;65.80
16128;DHT22;8168;49.036;7.690;2023-06-24T12:54:44;28.30;66.00
16128;DHT22;8168;49.036;7.690;2023-06-24T12:57:15;28.30;65.90
16128;DHT22;8168;49.036;7.690;2023-06-24T12:59:46;28.40;65.20
16128;DHT22;8168;49.036;7.690;2023-06-24T13:02:16;28.40;64.60
16128;DHT22;8168;49.036;7.690;2023-06-24T13:04:47;28.40;62.60
16128;DHT22;8168;49.036;7.690;2023-06-24T13:07:18;28.30;62.10
16128;DHT22;8168;49.036;7.690;2023-06-24T13:09:48;28.30;63.00
16128;DHT22;8168;49.036;7.690;2023-06-24T13:12:23;28.20;64.20
16128;DHT22;8168;49.036;7.690;2023-06-24T13:14:53;29.90;65.40
16128;DHT22;8168;49.036;7.690;2023-06-24T13:17:24;28.40;65.70
16128;DHT22;8168;49.036;7.690;2023-06-24T13:19:55;28.60;67.40
16128;DHT22;8168;49.036;7.690;2023-06-24T13:22:26;28.70;66.00
16128;DHT22;8168;49.036;7.690;2023-06-24T13:24:57;28.70;65.30
16128;DHT22;8168;49.036;7.690;2023-06-24T13:27:28;28.80;63.40
16128;DHT22;8168;49.036;7.690;2023-06-24T13:29:58;28.70;64.40
16128;DHT22;8168;49.036;7.690;2023-06-24T13:32:29;28.70;64.00
16128;DHT22;8168;49.036;7.690;2023-06-24T13:34:59;28.70;64.50
16128;DHT22;8168;49.036;7.690;2023-06-24T13:37:30;28.70;64.50
16128;DHT22;8168;49.036;7.690;2023-06-24T13:40:01;28.70;62.80
16128;DHT22;8168;49.036;7.690;2023-06-24T13:42:31;28.70;61.80
16128;DHT22;8168;49.036;7.690;2023-06-24T13:45:02;28.70;61.40
16128;DHT22;8168;49.036;7.690;2023-06-24T13:47:33;28.80;63.80
16128;DHT22;8168;49.036;7.690;2023-06-24T13:50:04;28.90;62.10
16128;DHT22;8168;49.036;7.690;2023-06-24T13:52:34;29.00;60.00
16128;DHT22;8168;49.036;7.690;2023-06-24T13:55:05;29.00;60.60
16128;DHT22;8168;49.036;7.690;2023-06-24T13:57:36;29.10;61.30
16128;DHT22;8168;49.036;7.690;2023-06-24T14:00:07;29.20;63.40
16128;DHT22;8168;49.036;7.690;2023-06-24T14:02:39;29.20;63.30
16128;DHT22;8168;49.036;7.690;2023-06-24T14:05:11;29.30;61.90
16128;DHT22;8168;49.036;7.690;2023-06-24T14:07:41;29.30;61.80
16128;DHT22;8168;49.036;7.690;2023-06-24T14:10:12;29.30;62.30
16128;DHT22;8168;49.036;7.690;2023-06-24T14:12:43;29.30;60.40
16128;DHT22;8168;49.036;7.690;2023-06-24T14:15:13;29.30;60.20
16128;DHT22;8168;49.036;7.690;2023-06-24T14:17:44;29.30;60.80
16128;DHT22;8168;49.036;7.690;2023-06-24T14:20:14;29.20;60.40
16128;DHT22;8168;49.036;7.690;2023-06-24T14:22:45;29.20;60.60
16128;DHT22;8168;49.036;7.690;2023-06-24T14:25:16;29.10;59.20
16128;DHT22;8168;49.036;7.690;2023-06-24T14:27:46;29.10;59.10
16128;DHT22;8168;49.036;7.690;2023-06-24T14:30:17;29.00;59.80
16128;DHT22;8168;49.036;7.690;2023-06-24T14:32:48;29.10;60.80
16128;DHT22;8168;49.036;7.690;2023-06-24T14:35:18;29.20;61.60
16128;DHT22;8168;49.036;7.690;2023-06-24T14:37:49;29.20;60.50
16128;DHT22;8168;49.036;7.690;2023-06-24T14:40:23;29.20;60.50
16128;DHT22;8168;49.036;7.690;2023-06-24T14:42:54;29.20;59.90
16128;DHT22;8168;49.036;7.690;2023-06-24T14:45:24;29.20;59.80
16128;DHT22;8168;49.036;7.690;2023-06-24T14:47:55;29.20;60.40
16128;DHT22;8168;49.036;7.690;2023-06-24T14:50:27;29.10;61.70
16128;DHT22;8168;49.036;7.690;2023-06-24T14:52:57;29.10;61.70
16128;DHT22;8168;49.036;7.690;2023-06-24T14:55:28;29.10;60.50
16128;DHT22;8168;49.036;7.690;2023-06-24T14:57:59;29.10;60.60
16128;DHT22;8168;49.036;7.690;2023-06-24T15:00:29;29.20;59.50
16128;DHT22;8168;49.036;7.690;2023-06-24T15:03:00;29.20;59.00
16128;DHT22;8168;49.036;7.690;2023-06-24T15:05:30;29.10;58.90
16128;DHT22;8168;49.036;7.690;2023-06-24T15:08:03;29.10;59.20
16128;DHT22;8168;49.036;7.690;2023-06-24T15:10:34;29.20;61.30
16128;DHT22;8168;49.036;7.690;2023-06-24T15:13:04;29.20;59.90
16128;DHT22;8168;49.036;7.690;2023-06-24T15:15:36;29.20;58.10
16128;DHT22;8168;49.036;7.690;2023-06-24T15:18:06;29.00;57.60
16128;DHT22;8168;49.036;7.690;2023-06-24T15:20:37;28.90;58.30
16128;DHT22;8168;49.036;7.690;2023-06-24T15:23:07;28.80;58.20
16128;DHT22;8168;49.036;7.690;2023-06-24T15:25:38;28.70;57.80
16128;DHT22;8168;49.036;7.690;2023-06-24T15:28:09;28.60;58.60
16128;DHT22;8168;49.036;7.690;2023-06-24T15:30:39;28.70;59.10
16128;DHT22;8168;49.036;7.690;2023-06-24T15:33:10;28.80;60.00
16128;DHT22;8168;49.036;7.690;2023-06-24T15:35:40;28.90;60.10
16128;DHT22;8168;49.036;7.690;2023-06-24T15:38:11;29.00;58.80
16128;DHT22;8168;49.036;7.690;2023-06-24T15:40:42;28.90;58.90
16128;DHT22;8168;49.036;7.690;2023-06-24T15:43:13;28.90;59.30
16128;DHT22;8168;49.036;7.690;2023-06-24T15:45:44;28.80;58.90
16128;DHT22;8168;49.036;7.690;2023-06-24T15:48:14;28.80;59.80
16128;DHT22;8168;49.036;7.690;2023-06-24T15:50:45;28.90;59.30
16128;DHT22;8168;49.036;7.690;2023-06-24T15:53:16;28.90;58.80
16128;DHT22;8168;49.036;7.690;2023-06-24T15:55:46;28.80;58.40
16128;DHT22;8168;49.036;7.690;2023-06-24T15:58:17;28.80;59.20
16128;DHT22;8168;49.036;7.690;2023-06-24T16:00:47;28.90;59.80
16128;DHT22;8168;49.036;7.690;2023-06-24T16:03:18;28.90;58.40
16128;DHT22;8168;49.036;7.690;2023-06-24T16:05:49;28.80;57.90
16128;DHT22;8168;49.036;7.690;2023-06-24T16:08:19;28.80;57.90
16128;DHT22;8168;49.036;7.690;2023-06-24T16:10:52;28.70;58.60
16128;DHT22;8168;49.036;7.690;2023-06-24T16:13:22;28.60;59.80
16128;DHT22;8168;49.036;7.690;2023-06-24T16:15:53;28.60;59.70
16128;DHT22;8168;49.036;7.690;2023-06-24T16:18:23;28.50;59.20
16128;DHT22;8168;49.036;7.690;2023-06-24T16:20:54;28.60;60.00
16128;DHT22;8168;49.036;7.690;2023-06-24T16:23:25;28.60;60.20
16128;DHT22;8168;49.036;7.690;2023-06-24T16:25:55;28.60;59.80
16128;DHT22;8168;49.036;7.690;2023-06-24T16:28:26;28.50;58.80